Arcola, Mississippi
Current Conditions -  °F | °C
As of 8:53 PM on Friday 19 Dec 2014 (Local Time) from KGLH Reporting Station
Overcast Overcast  
Wind Chill:   Ceiling: 2900
Heat Index:   Visibility: 8mi
Dew Point:   Wind: 8mph
Humidity: 82%   Direction: 50°NE
Pressure: 30.2"   Gusts: NA
Location:  33.27°N, 90.88°W
Report Text: KGLH 200253Z AUTO 05007KT 8SM OVC029 07/04 A3020 RMK AO2 SLP237 T00720044 50001
Loading
Personal Weather Stations






























Interactive Weather Map New forecast layout! Learn more

10-Day Weather Forecast

Advertisements
Track Severe Weather on mobile